createdAt,value
2017-07-24T00:01:17.238Z,1.30
2017-07-24T00:03:46.465Z,2.13
2017-07-24T00:06:16.710Z,1.27
2017-07-24T00:08:46.533Z,1.37
2017-07-24T00:11:16.388Z,1.13
2017-07-24T00:13:46.504Z,1.20
2017-07-24T00:16:15.724Z,2.10
2017-07-24T00:18:45.299Z,1.60
2017-07-24T00:21:15.130Z,1.13
2017-07-24T00:23:45.589Z,1.43
2017-07-24T00:26:15.529Z,1.57
2017-07-24T00:28:45.302Z,2.23
2017-07-24T00:31:16.374Z,1.43
2017-07-24T00:33:45.947Z,1.60
2017-07-24T00:36:16.405Z,1.30
2017-07-24T00:38:46.247Z,1.70
2017-07-24T00:41:15.954Z,1.70
2017-07-24T00:43:46.468Z,2.10
2017-07-24T00:46:16.325Z,1.77
2017-07-24T00:48:46.406Z,1.93
2017-07-24T00:51:16.474Z,1.70
2017-07-24T00:53:45.697Z,1.40
2017-07-24T00:56:15.819Z,2.23
2017-07-24T00:58:46.057Z,2.30
2017-07-24T01:01:16.077Z,1.90
2017-07-24T01:03:45.663Z,1.80
2017-07-24T01:06:16.095Z,1.83
2017-07-24T01:08:45.314Z,1.90
2017-07-24T01:11:16.996Z,2.30
2017-07-24T01:13:46.946Z,1.53
2017-07-24T01:16:16.361Z,1.43
2017-07-24T01:18:46.680Z,1.70
2017-07-24T01:21:16.617Z,1.90
2017-07-24T01:23:46.020Z,2.43
2017-07-24T01:26:16.277Z,1.60
2017-07-24T01:28:46.575Z,1.90
2017-07-24T01:31:16.028Z,2.20
2017-07-24T01:33:45.860Z,1.60
2017-07-24T01:36:24.777Z,1.97
2017-07-24T01:38:53.324Z,1.50
2017-07-24T01:41:22.710Z,1.70
2017-07-24T01:43:52.173Z,1.43
2017-07-24T01:46:22.293Z,2.00
2017-07-24T01:48:50.843Z,1.43
2017-07-24T01:51:19.565Z,1.70
2017-07-24T01:53:48.294Z,1.60
2017-07-24T01:56:16.847Z,1.63
2017-07-24T01:58:46.228Z,1.87
2017-07-24T02:01:16.351Z,1.60
2017-07-24T02:03:46.630Z,2.20
2017-07-24T02:06:16.279Z,2.10
2017-07-24T02:08:46.157Z,2.00
2017-07-24T02:11:16.699Z,2.00
2017-07-24T02:13:46.806Z,1.80
2017-07-24T02:16:16.670Z,2.10
2017-07-24T02:18:45.833Z,2.07
2017-07-24T02:21:15.718Z,1.60
2017-07-24T02:23:45.803Z,2.07
2017-07-24T02:26:16.891Z,2.27
2017-07-24T02:28:47.454Z,1.90
2017-07-24T02:31:17.001Z,1.80
2017-07-24T02:33:46.197Z,2.13
2017-07-24T02:36:16.738Z,2.50
2017-07-24T02:38:46.704Z,2.17
2017-07-24T02:41:17.227Z,2.33
2017-07-24T02:43:46.763Z,2.10
2017-07-24T02:46:15.799Z,1.80
2017-07-24T02:48:45.839Z,2.00
2017-07-24T02:51:16.049Z,2.10
2017-07-24T02:53:46.052Z,2.57
2017-07-24T02:56:17.260Z,2.40
2017-07-24T02:58:46.431Z,2.43
2017-07-24T03:01:16.359Z,2.17
2017-07-24T03:03:46.869Z,2.43
2017-07-24T03:06:16.756Z,2.20
2017-07-24T03:08:45.954Z,1.77
2017-07-24T03:11:16.559Z,1.50
2017-07-24T03:13:46.702Z,1.67
2017-07-24T03:16:16.567Z,2.00
2017-07-24T03:18:47.035Z,2.07
2017-07-24T03:21:16.592Z,2.00
2017-07-24T03:23:45.806Z,2.10
2017-07-24T03:26:15.802Z,2.10
2017-07-24T03:28:46.965Z,2.37
2017-07-24T03:31:16.486Z,2.70
2017-07-24T03:33:48.565Z,2.70
2017-07-24T03:36:17.448Z,2.50
2017-07-24T03:38:46.192Z,2.53
2017-07-24T03:41:15.770Z,2.40
2017-07-24T03:43:45.028Z,2.50
2017-07-24T03:46:14.568Z,2.50
2017-07-24T03:48:45.095Z,2.67
2017-07-24T03:51:15.632Z,2.60
2017-07-24T03:53:45.590Z,2.50
2017-07-24T03:56:16.356Z,2.03
2017-07-24T03:58:46.132Z,2.27
2017-07-24T04:01:16.840Z,2.47
2017-07-24T04:03:46.729Z,2.27
2017-07-24T04:06:16.018Z,3.40
2017-07-24T04:08:46.295Z,2.53
2017-07-24T04:11:15.841Z,2.30
2017-07-24T04:13:45.498Z,2.47
2017-07-24T04:16:15.751Z,3.00
2017-07-24T04:18:46.093Z,2.70
2017-07-24T04:21:17.538Z,1.93
2017-07-24T04:23:46.331Z,2.47
2017-07-24T04:26:16.290Z,3.20
2017-07-24T04:28:46.119Z,2.57
2017-07-24T04:31:16.746Z,3.70
2017-07-24T04:33:46.320Z,3.77
2017-07-24T04:36:16.375Z,3.33
2017-07-24T04:38:45.952Z,3.33
2017-07-24T04:41:16.318Z,2.80
2017-07-24T04:43:46.679Z,3.80
2017-07-24T04:46:17.135Z,3.60
2017-07-24T04:48:46.590Z,2.93
2017-07-24T04:51:15.799Z,3.63
2017-07-24T04:53:45.345Z,3.93
2017-07-24T04:56:16.031Z,4.17
2017-07-24T04:58:45.624Z,4.13
2017-07-24T05:01:15.606Z,3.57
2017-07-24T05:03:45.269Z,3.87
2017-07-24T05:06:14.833Z,5.00
2017-07-24T05:08:45.374Z,4.03
2017-07-24T05:11:15.531Z,3.73
2017-07-24T05:13:44.857Z,4.07
2017-07-24T05:16:14.674Z,4.43
2017-07-24T05:18:44.040Z,4.50
2017-07-24T05:21:13.755Z,4.77
2017-07-24T05:23:44.158Z,4.10
2017-07-24T05:26:14.186Z,4.40
2017-07-24T05:28:44.619Z,4.80
2017-07-24T05:31:14.913Z,5.40
2017-07-24T05:33:46.116Z,5.07
2017-07-24T05:36:16.110Z,4.70
2017-07-24T05:38:47.408Z,5.97
2017-07-24T05:41:18.212Z,6.00
2017-07-24T05:43:48.036Z,5.20
2017-07-24T05:46:18.248Z,5.87
2017-07-24T05:48:47.767Z,6.23
2017-07-24T05:51:16.946Z,4.63
2017-07-24T05:53:45.704Z,4.43
2017-07-24T05:56:14.846Z,4.83
2017-07-24T05:58:44.164Z,3.77
2017-07-24T06:01:13.960Z,3.80
2017-07-24T06:03:43.458Z,3.63
2017-07-24T06:06:12.721Z,3.30
2017-07-24T06:08:42.283Z,4.13
2017-07-24T06:11:12.070Z,3.43
2017-07-24T06:13:41.994Z,4.10
2017-07-24T06:16:11.809Z,3.43
2017-07-24T06:18:42.185Z,2.93
2017-07-24T06:21:11.867Z,3.60
2017-07-24T06:23:42.794Z,4.00
2017-07-24T06:26:13.529Z,3.30
2017-07-24T06:28:43.257Z,3.13
2017-07-24T06:31:12.525Z,3.47
2017-07-24T06:33:42.457Z,3.17
2017-07-24T06:36:12.724Z,4.23
2017-07-24T06:38:42.924Z,3.60
2017-07-24T06:41:12.557Z,3.13
2017-07-24T06:43:43.460Z,4.47
2017-07-24T06:46:12.908Z,3.20
2017-07-24T06:48:42.885Z,3.20
2017-07-24T06:51:12.546Z,3.67
2017-07-24T06:53:42.233Z,3.40
2017-07-24T06:56:11.884Z,4.50
2017-07-24T06:58:42.407Z,3.00
2017-07-24T07:01:12.431Z,3.00
2017-07-24T07:03:43.157Z,3.00
2017-07-24T07:06:14.146Z,3.00
2017-07-24T07:08:43.548Z,3.57
2017-07-24T07:11:15.377Z,2.37
2017-07-24T07:13:45.215Z,3.20
2017-07-24T07:16:14.499Z,4.60
2017-07-24T07:18:43.852Z,3.47
2017-07-24T07:21:13.488Z,3.40
2017-07-24T07:23:46.084Z,3.70
2017-07-24T07:26:15.764Z,3.63
2017-07-24T07:28:45.004Z,3.47
2017-07-24T07:31:14.853Z,5.40
2017-07-24T07:33:44.788Z,3.83
2017-07-24T07:36:14.269Z,4.47
2017-07-24T07:38:44.302Z,3.23
2017-07-24T07:41:14.395Z,3.77
2017-07-24T07:43:43.864Z,3.00
2017-07-24T07:46:14.260Z,3.37
2017-07-24T07:57:54.799Z,2.50
2017-07-24T08:00:23.581Z,3.33
2017-07-24T08:02:52.546Z,1.90
2017-07-24T08:05:23.096Z,3.40
2017-07-24T08:07:52.210Z,3.10
2017-07-24T08:13:01.173Z,2.43
2017-07-24T08:15:29.535Z,2.20
2017-07-24T08:17:58.070Z,2.30
2017-07-24T08:20:26.365Z,3.50
2017-07-24T08:22:55.133Z,2.57
2017-07-24T08:25:23.750Z,3.00
2017-07-24T08:27:52.506Z,3.00
2017-07-24T08:30:22.650Z,2.07
2017-07-24T08:32:51.354Z,2.63
2017-07-24T08:35:20.040Z,1.90
2017-07-24T08:37:50.178Z,2.67
2017-07-24T08:40:18.806Z,1.97
2017-07-24T08:42:49.502Z,1.73
2017-07-24T08:45:19.020Z,1.70
2017-07-24T08:47:50.046Z,1.40
2017-07-24T08:50:18.945Z,1.70
2017-07-24T08:52:47.804Z,2.00
2017-07-24T08:55:16.867Z,1.60
2017-07-24T08:57:45.861Z,2.10
2017-07-24T09:00:16.632Z,1.70
2017-07-24T09:02:45.461Z,1.20
2017-07-24T09:05:16.041Z,1.70
2017-07-24T09:07:44.981Z,2.20
2017-07-24T09:10:14.579Z,2.57
2017-07-24T09:12:44.608Z,2.30
2017-07-24T09:21:14.094Z,3.50
2017-07-24T09:23:44.595Z,1.40
2017-07-24T09:26:13.683Z,1.33
2017-07-24T09:28:43.630Z,1.30
2017-07-24T09:31:14.517Z,1.27
2017-07-24T09:33:44.239Z,1.57
2017-07-24T09:36:14.318Z,1.00
2017-07-24T09:38:45.359Z,1.23
2017-07-24T09:41:15.218Z,1.80
2017-07-24T09:43:45.091Z,1.83
2017-07-24T09:46:14.760Z,1.90
2017-07-24T09:48:45.469Z,2.63
2017-07-24T09:51:14.414Z,1.57
2017-07-24T09:53:44.162Z,2.03
2017-07-24T09:56:13.610Z,2.17
2017-07-24T09:58:43.578Z,2.27
2017-07-24T10:01:13.940Z,1.87
2017-07-24T10:03:45.335Z,1.43
2017-07-24T10:06:15.213Z,2.00
2017-07-24T10:08:45.958Z,2.80
2017-07-24T10:11:15.661Z,2.13
2017-07-24T10:13:44.492Z,1.40
2017-07-24T10:16:14.542Z,1.20
2017-07-24T10:18:44.502Z,1.10
2017-07-24T10:21:14.127Z,0.97
2017-07-24T10:23:44.644Z,1.03
2017-07-24T10:26:15.357Z,1.30
2017-07-24T10:28:44.745Z,0.83
2017-07-24T10:31:15.041Z,1.40
2017-07-24T10:33:45.037Z,1.47
2017-07-24T10:36:15.000Z,1.13
2017-07-24T10:38:44.479Z,1.20
2017-07-24T10:41:14.525Z,0.87
2017-07-24T10:43:44.144Z,0.70
2017-07-24T10:46:13.430Z,0.73
2017-07-24T10:48:42.754Z,0.90
2017-07-24T10:51:12.413Z,1.10
2017-07-24T10:53:44.155Z,0.97
2017-07-24T10:56:14.632Z,1.20
2017-07-24T10:58:44.053Z,1.00
2017-07-24T11:01:14.975Z,1.03
2017-07-24T11:03:44.753Z,1.20
2017-07-24T11:06:14.552Z,1.20
2017-07-24T11:08:44.237Z,1.40
2017-07-24T11:11:13.865Z,1.30
2017-07-24T11:13:43.844Z,1.30
2017-07-24T11:16:13.144Z,1.40
2017-07-24T11:18:42.283Z,1.23
2017-07-24T11:21:11.785Z,1.50
2017-07-24T11:23:41.233Z,1.80
2017-07-24T11:26:10.768Z,2.00
2017-07-24T11:28:40.424Z,1.50
2017-07-24T11:31:09.400Z,1.60
2017-07-24T11:33:37.981Z,1.67
2017-07-24T11:36:06.377Z,1.20
2017-07-24T11:38:34.964Z,1.30
2017-07-24T11:41:03.294Z,2.17
2017-07-24T11:43:31.635Z,1.57
2017-07-24T11:45:59.928Z,2.00
2017-07-24T11:48:28.273Z,2.30
2017-07-24T11:50:56.570Z,2.33
2017-07-24T11:53:25.734Z,2.10
2017-07-24T11:55:54.750Z,2.37
2017-07-24T11:58:23.270Z,2.30
2017-07-24T12:00:51.988Z,2.80
2017-07-24T12:03:20.566Z,2.80
2017-07-24T12:05:50.102Z,3.30
2017-07-24T12:08:18.655Z,3.37
2017-07-24T12:10:48.136Z,3.13
2017-07-24T12:13:16.937Z,4.17
2017-07-24T12:15:45.756Z,4.30
2017-07-24T12:18:14.819Z,4.10
2017-07-24T12:20:43.906Z,3.63
2017-07-24T12:23:13.380Z,5.83
2017-07-24T12:25:42.752Z,3.20
2017-07-24T12:28:13.478Z,4.13
2017-07-24T12:30:43.442Z,4.33
2017-07-24T12:33:13.005Z,3.20
2017-07-24T12:35:41.431Z,3.57
2017-07-24T12:38:12.770Z,3.07
2017-07-24T12:40:42.926Z,3.10
2017-07-24T12:43:12.179Z,3.10
2017-07-24T12:45:43.533Z,3.10
2017-07-24T12:48:13.146Z,3.53
2017-07-24T12:50:42.307Z,2.50
2017-07-24T12:53:11.513Z,3.20
2017-07-24T12:55:40.971Z,3.43
2017-07-24T12:58:09.792Z,3.47
2017-07-24T13:00:39.059Z,4.27
2017-07-24T13:03:07.730Z,3.73
2017-07-24T13:05:36.172Z,2.50
2017-07-24T13:08:04.470Z,2.50
2017-07-24T13:10:33.016Z,2.40
2017-07-24T13:13:01.628Z,4.00
2017-07-24T13:15:29.989Z,3.17
2017-07-24T13:17:58.291Z,3.00
2017-07-24T13:20:26.577Z,2.47
2017-07-24T13:22:55.303Z,2.23
2017-07-24T13:25:23.805Z,2.17
2017-07-24T13:27:52.475Z,2.70
2017-07-24T13:30:21.168Z,2.50
2017-07-24T13:32:49.971Z,2.30
2017-07-24T13:35:18.794Z,2.57
2017-07-24T13:37:47.535Z,2.07
2017-07-24T13:40:16.202Z,1.60
2017-07-24T13:42:45.065Z,2.27
2017-07-24T13:45:14.215Z,1.70
2017-07-24T13:47:42.942Z,2.10
2017-07-24T13:50:12.292Z,2.23
2017-07-24T13:52:41.817Z,2.17
2017-07-24T13:55:13.092Z,1.67
2017-07-24T13:57:43.168Z,1.60
2017-07-24T14:00:13.389Z,2.00
2017-07-24T14:02:42.955Z,2.23
2017-07-24T14:05:12.596Z,2.13
2017-07-24T14:07:42.681Z,1.27
2017-07-24T14:10:11.620Z,1.60
2017-07-24T14:12:42.078Z,1.50
2017-07-24T14:15:11.789Z,1.20
2017-07-24T14:17:42.078Z,1.93
2017-07-24T14:20:12.119Z,1.80
2017-07-24T14:22:41.737Z,1.40
2017-07-24T14:25:11.104Z,1.40
2017-07-24T14:27:41.734Z,1.40
2017-07-24T14:30:10.885Z,1.80
2017-07-24T14:32:40.021Z,2.03
2017-07-24T14:35:10.002Z,1.30
2017-07-24T14:37:38.960Z,1.30
2017-07-24T14:40:07.505Z,1.70
2017-07-24T14:42:35.819Z,1.07
2017-07-24T14:45:04.423Z,1.27
2017-07-24T14:47:32.789Z,1.60
2017-07-24T14:50:01.406Z,1.40
2017-07-24T14:52:29.765Z,1.20
2017-07-24T14:54:58.108Z,1.70
2017-07-24T14:57:26.398Z,1.37
2017-07-24T14:59:54.762Z,1.90
2017-07-24T15:02:23.461Z,1.90
2017-07-24T15:04:52.009Z,2.30
2017-07-24T15:07:20.642Z,2.10
2017-07-24T15:09:49.281Z,3.40
2017-07-24T15:12:17.841Z,4.10
2017-07-24T15:14:46.398Z,4.33
2017-07-24T15:17:15.256Z,5.13
2017-07-24T15:19:44.338Z,5.50
2017-07-24T15:22:13.441Z,5.67
2017-07-24T15:24:43.440Z,5.37
2017-07-24T15:27:13.971Z,4.40
2017-07-24T15:29:43.129Z,4.73
2017-07-24T15:32:11.920Z,4.20
2017-07-24T15:34:40.567Z,5.37
2017-07-24T15:37:09.616Z,5.33
2017-07-24T15:39:38.489Z,5.67
2017-07-24T15:42:07.232Z,5.07
2017-07-24T15:44:35.590Z,4.70
2017-07-24T15:47:04.137Z,5.37
2017-07-24T15:49:32.481Z,3.60
2017-07-24T15:52:00.785Z,4.03
2017-07-24T15:54:29.133Z,5.87
2017-07-24T15:56:57.430Z,4.60
2017-07-24T15:59:25.798Z,4.60
2017-07-24T16:01:54.404Z,4.67
2017-07-24T16:04:22.971Z,5.37
2017-07-24T16:06:51.580Z,4.33
2017-07-24T16:09:20.454Z,4.30
2017-07-24T16:11:48.911Z,4.07
2017-07-24T16:14:17.418Z,4.73
2017-07-24T16:16:46.371Z,2.93
2017-07-24T16:19:15.339Z,3.10
2017-07-24T16:21:44.620Z,3.60
2017-07-24T16:24:14.951Z,3.73
2017-07-24T16:26:44.069Z,2.53
2017-07-24T16:29:12.910Z,3.10
2017-07-24T16:31:42.253Z,3.23
2017-07-24T16:34:11.612Z,2.30
2017-07-24T16:36:41.260Z,2.17
2017-07-24T16:39:10.186Z,2.27
2017-07-24T16:41:39.146Z,2.70
2017-07-24T16:44:08.745Z,2.40
2017-07-24T16:46:37.489Z,2.30
2017-07-24T16:49:06.948Z,2.27
2017-07-24T16:51:36.129Z,2.73
2017-07-24T16:54:05.077Z,2.23
2017-07-24T16:56:34.187Z,3.20
2017-07-24T16:59:03.306Z,2.83
2017-07-24T17:01:31.646Z,3.63
2017-07-24T17:03:59.954Z,2.90
2017-07-24T17:06:29.960Z,2.53
2017-07-24T17:08:58.446Z,2.40
2017-07-24T17:11:26.734Z,2.67
2017-07-24T17:13:55.077Z,2.40
2017-07-24T17:16:23.762Z,2.80
2017-07-24T17:18:52.853Z,3.27
2017-07-24T17:21:21.708Z,3.00
2017-07-24T17:23:50.469Z,4.43
2017-07-24T17:26:19.092Z,4.07
2017-07-24T17:28:47.617Z,4.30
2017-07-24T17:31:16.374Z,4.80
2017-07-24T17:33:45.188Z,5.10
2017-07-24T17:36:13.781Z,4.77
2017-07-24T17:38:43.285Z,5.00
2017-07-24T17:41:12.426Z,5.47
2017-07-24T17:43:41.941Z,5.17
2017-07-24T17:46:11.599Z,4.50
2017-07-24T17:48:40.465Z,5.07
2017-07-24T17:51:09.226Z,4.63
2017-07-24T17:53:38.133Z,5.17
2017-07-24T17:56:06.642Z,4.30
2017-07-24T17:58:35.040Z,4.00
2017-07-24T18:01:03.340Z,4.00
2017-07-24T18:03:31.685Z,3.07
2017-07-24T18:06:00.067Z,4.27
2017-07-24T18:08:29.405Z,4.03
2017-07-24T18:10:57.862Z,3.43
2017-07-24T18:13:27.267Z,3.90
2017-07-24T18:15:55.965Z,3.60
2017-07-24T18:18:24.971Z,3.80
2017-07-24T18:20:53.896Z,3.43
2017-07-24T18:23:22.806Z,3.90
2017-07-24T18:25:51.754Z,4.50
2017-07-24T18:28:20.553Z,4.47
2017-07-24T18:30:49.470Z,4.90
2017-07-24T18:33:18.241Z,5.10
2017-07-24T18:35:47.025Z,5.87
2017-07-24T18:38:15.633Z,6.47
2017-07-24T18:40:44.900Z,6.90
2017-07-24T18:43:14.311Z,5.70
2017-07-24T18:45:43.577Z,6.80
2017-07-24T18:48:12.642Z,5.83
2017-07-24T18:50:42.079Z,6.73
2017-07-24T18:53:12.305Z,6.80
2017-07-24T18:55:42.673Z,6.53
2017-07-24T18:58:13.215Z,7.53
2017-07-24T19:00:42.803Z,6.10
2017-07-24T19:03:12.138Z,5.93
2017-07-24T19:05:41.726Z,4.87
2017-07-24T19:08:11.009Z,5.70
2017-07-24T19:10:40.116Z,5.80
2017-07-24T19:13:09.660Z,6.80
2017-07-24T19:15:38.447Z,6.40
2017-07-24T19:18:07.343Z,6.33
2017-07-24T19:20:35.729Z,6.13
2017-07-24T19:23:04.106Z,6.73
2017-07-24T19:25:32.399Z,6.60
2017-07-24T19:28:00.761Z,7.40
2017-07-24T19:30:29.056Z,8.23
2017-07-24T19:32:57.421Z,6.90
2017-07-24T19:35:26.109Z,6.93
2017-07-24T19:37:54.626Z,7.37
2017-07-24T19:40:23.216Z,8.97
2017-07-24T19:42:51.868Z,8.33
2017-07-24T19:45:20.676Z,9.10
2017-07-24T19:47:50.304Z,7.37
2017-07-24T19:50:21.549Z,8.30
2017-07-24T19:52:51.313Z,8.30
2017-07-24T19:55:20.235Z,8.67
2017-07-24T19:57:48.992Z,9.77
2017-07-24T20:00:19.130Z,10.27
2017-07-24T20:02:47.805Z,9.73
2017-07-24T20:05:16.477Z,10.50
2017-07-24T20:07:45.267Z,12.20
2017-07-24T20:10:14.334Z,11.10
2017-07-24T20:12:43.483Z,11.90
2017-07-24T20:15:12.644Z,11.60
2017-07-24T20:17:42.432Z,11.50
2017-07-24T20:20:11.624Z,10.90
2017-07-24T20:22:40.851Z,11.70
2017-07-24T20:25:10.097Z,11.97
2017-07-24T20:27:38.868Z,11.70
2017-07-24T20:30:08.104Z,13.03
2017-07-24T20:32:36.680Z,11.93
2017-07-24T20:35:05.247Z,13.33
2017-07-24T20:37:33.553Z,13.40
2017-07-24T20:40:01.899Z,12.60
2017-07-24T20:42:30.592Z,13.00
2017-07-24T20:44:59.175Z,12.90
2017-07-24T20:47:27.579Z,14.63
2017-07-24T20:49:56.143Z,13.90
2017-07-24T20:52:24.913Z,13.00
2017-07-24T20:54:53.417Z,15.40
2017-07-24T20:57:21.984Z,13.50
2017-07-24T20:59:50.489Z,13.93
2017-07-24T21:02:19.080Z,13.83
2017-07-24T21:04:48.506Z,13.43
2017-07-24T21:07:17.296Z,12.63
2017-07-24T21:09:46.372Z,10.70
2017-07-24T21:12:16.050Z,10.07
2017-07-24T21:14:45.183Z,12.13
2017-07-24T21:17:15.192Z,11.77
2017-07-24T21:19:45.190Z,11.13
2017-07-24T21:22:14.815Z,11.40
2017-07-24T21:24:43.707Z,12.13
2017-07-24T21:27:13.616Z,10.37
2017-07-24T21:29:42.617Z,10.63
2017-07-24T21:32:11.754Z,11.20
2017-07-24T21:34:40.673Z,12.10
2017-07-24T21:37:09.902Z,12.63
2017-07-24T21:39:38.499Z,11.90
2017-07-24T21:42:07.193Z,12.33
2017-07-24T21:44:35.565Z,11.87
2017-07-24T21:47:03.944Z,11.47
2017-07-24T21:49:32.260Z,12.30
2017-07-24T21:52:00.562Z,12.60
2017-07-24T21:54:29.013Z,11.80
2017-07-24T21:56:57.320Z,12.10
2017-07-24T21:59:25.981Z,14.27
2017-07-24T22:01:54.465Z,13.10
2017-07-24T22:04:23.168Z,15.70
2017-07-24T22:06:51.653Z,12.50
2017-07-24T22:09:20.105Z,14.40
2017-07-24T22:11:48.933Z,13.10
2017-07-24T22:14:17.499Z,12.67
2017-07-24T22:16:46.208Z,12.53
2017-07-24T22:19:15.178Z,11.90
2017-07-24T22:21:44.302Z,13.07
2017-07-24T22:24:13.662Z,13.90
2017-07-24T22:26:42.838Z,13.90
2017-07-24T22:29:11.966Z,13.80
2017-07-24T22:31:43.594Z,12.80
2017-07-24T22:34:12.500Z,12.40
2017-07-24T22:36:41.591Z,14.00
2017-07-24T22:39:10.261Z,14.30
2017-07-24T22:41:38.817Z,15.13
2017-07-24T22:44:07.535Z,15.70
2017-07-24T22:46:35.981Z,13.33
2017-07-24T22:49:04.340Z,12.53
2017-07-24T22:51:32.684Z,13.30
2017-07-24T22:54:01.241Z,14.33
2017-07-24T22:56:29.873Z,14.60
2017-07-24T22:58:58.186Z,15.90
2017-07-24T23:01:26.497Z,13.27
2017-07-24T23:03:54.987Z,14.17
2017-07-24T23:06:23.712Z,14.00
2017-07-24T23:08:52.149Z,15.30
2017-07-24T23:11:21.517Z,14.73
2017-07-24T23:13:50.792Z,15.93
2017-07-24T23:16:19.294Z,16.93
2017-07-24T23:18:47.886Z,17.73
2017-07-24T23:21:16.330Z,17.03
2017-07-24T23:23:45.195Z,18.80
2017-07-24T23:26:15.840Z,20.93
2017-07-24T23:28:45.442Z,22.17
2017-07-24T23:31:13.988Z,20.73
2017-07-24T23:33:43.015Z,17.90
2017-07-24T23:36:13.958Z,17.60
2017-07-24T23:38:43.736Z,19.73
2017-07-24T23:41:13.239Z,15.60
2017-07-24T23:43:42.853Z,15.80
2017-07-24T23:46:13.601Z,14.83
2017-07-24T23:48:43.032Z,16.17
2017-07-24T23:51:11.947Z,16.27
2017-07-24T23:53:43.250Z,14.97
2017-07-24T23:56:12.802Z,16.53
2017-07-24T23:58:43.075Z,14.37
